sensor_id;sensor_type;location;lat;lon;timestamp;P1;durP1;ratioP1;P2;durP2;ratioP2
61460;SDS011;47325;50.506;4.472;2023-03-01T00:00:12;9.00;;;5.40;;
61460;SDS011;47325;50.506;4.472;2023-03-01T00:05:56;6.90;;;4.80;;
61460;SDS011;47325;50.506;4.472;2023-03-01T00:11:39;7.50;;;5.20;;
61460;SDS011;47325;50.506;4.472;2023-03-01T00:17:23;6.60;;;4.90;;
61460;SDS011;47325;50.506;4.472;2023-03-01T00:23:07;6.80;;;5.10;;
61460;SDS011;47325;50.506;4.472;2023-03-01T00:28:51;7.00;;;5.00;;
61460;SDS011;47325;50.506;4.472;2023-03-01T00:34:35;7.60;;;5.10;;
61460;SDS011;47325;50.506;4.472;2023-03-01T00:40:18;7.20;;;5.40;;
61460;SDS011;47325;50.506;4.472;2023-03-01T00:46:04;7.40;;;5.10;;
61460;SDS011;47325;50.506;4.472;2023-03-01T00:51:49;7.40;;;5.00;;
61460;SDS011;47325;50.506;4.472;2023-03-01T00:57:32;7.50;;;5.00;;
61460;SDS011;47325;50.506;4.472;2023-03-01T01:03:16;7.30;;;5.40;;
61460;SDS011;47325;50.506;4.472;2023-03-01T01:08:59;6.30;;;4.90;;
61460;SDS011;47325;50.506;4.472;2023-03-01T01:14:44;7.20;;;5.40;;
61460;SDS011;47325;50.506;4.472;2023-03-01T01:20:28;7.70;;;5.40;;
61460;SDS011;47325;50.506;4.472;2023-03-01T01:26:13;6.60;;;5.10;;
61460;SDS011;47325;50.506;4.472;2023-03-01T01:31:57;7.10;;;5.20;;
61460;SDS011;47325;50.506;4.472;2023-03-01T01:37:41;7.20;;;5.30;;
61460;SDS011;47325;50.506;4.472;2023-03-01T01:43:25;7.50;;;5.10;;
61460;SDS011;47325;50.506;4.472;2023-03-01T01:49:10;7.10;;;5.40;;
61460;SDS011;47325;50.506;4.472;2023-03-01T01:54:59;7.80;;;5.40;;
61460;SDS011;47325;50.506;4.472;2023-03-01T02:00:45;7.40;;;5.80;;
61460;SDS011;47325;50.506;4.472;2023-03-01T02:06:31;8.40;;;5.60;;
61460;SDS011;47325;50.506;4.472;2023-03-01T02:12:18;8.00;;;5.40;;
61460;SDS011;47325;50.506;4.472;2023-03-01T02:18:02;8.20;;;5.80;;
61460;SDS011;47325;50.506;4.472;2023-03-01T02:23:47;7.30;;;5.40;;
61460;SDS011;47325;50.506;4.472;2023-03-01T02:29:31;7.70;;;5.60;;
61460;SDS011;47325;50.506;4.472;2023-03-01T02:35:15;8.00;;;5.70;;
61460;SDS011;47325;50.506;4.472;2023-03-01T02:41:00;7.90;;;5.60;;
61460;SDS011;47325;50.506;4.472;2023-03-01T02:46:47;8.00;;;5.90;;
61460;SDS011;47325;50.506;4.472;2023-03-01T02:52:33;8.00;;;6.10;;
61460;SDS011;47325;50.506;4.472;2023-03-01T02:58:17;8.80;;;6.10;;
61460;SDS011;47325;50.506;4.472;2023-03-01T03:04:01;8.20;;;6.00;;
61460;SDS011;47325;50.506;4.472;2023-03-01T03:09:46;9.00;;;6.10;;
61460;SDS011;47325;50.506;4.472;2023-03-01T03:15:30;8.60;;;6.20;;
61460;SDS011;47325;50.506;4.472;2023-03-01T03:21:14;9.40;;;6.40;;
61460;SDS011;47325;50.506;4.472;2023-03-01T03:26:58;8.40;;;6.00;;
61460;SDS011;47325;50.506;4.472;2023-03-01T03:32:42;8.30;;;6.10;;
61460;SDS011;47325;50.506;4.472;2023-03-01T03:38:26;10.40;;;6.70;;
61460;SDS011;47325;50.506;4.472;2023-03-01T03:44:10;9.10;;;6.30;;
61460;SDS011;47325;50.506;4.472;2023-03-01T03:49:54;10.10;;;6.40;;
61460;SDS011;47325;50.506;4.472;2023-03-01T03:55:38;9.70;;;6.50;;
61460;SDS011;47325;50.506;4.472;2023-03-01T04:01:22;8.80;;;6.50;;
61460;SDS011;47325;50.506;4.472;2023-03-01T04:07:07;9.10;;;6.50;;
61460;SDS011;47325;50.506;4.472;2023-03-01T04:12:51;8.40;;;6.40;;
61460;SDS011;47325;50.506;4.472;2023-03-01T04:18:34;8.60;;;6.70;;
61460;SDS011;47325;50.506;4.472;2023-03-01T04:24:18;10.30;;;6.70;;
61460;SDS011;47325;50.506;4.472;2023-03-01T04:30:03;9.60;;;6.90;;
61460;SDS011;47325;50.506;4.472;2023-03-01T04:35:47;9.80;;;7.10;;
61460;SDS011;47325;50.506;4.472;2023-03-01T04:41:31;10.50;;;7.20;;
61460;SDS011;47325;50.506;4.472;2023-03-01T04:47:16;10.60;;;7.10;;
61460;SDS011;47325;50.506;4.472;2023-03-01T04:53:00;10.50;;;7.30;;
61460;SDS011;47325;50.506;4.472;2023-03-01T04:58:44;10.30;;;7.20;;
61460;SDS011;47325;50.506;4.472;2023-03-01T05:04:28;9.50;;;7.10;;
61460;SDS011;47325;50.506;4.472;2023-03-01T05:10:12;10.20;;;7.30;;
61460;SDS011;47325;50.506;4.472;2023-03-01T05:15:57;10.70;;;7.50;;
61460;SDS011;47325;50.506;4.472;2023-03-01T05:21:42;12.40;;;7.00;;
61460;SDS011;47325;50.506;4.472;2023-03-01T05:27:27;10.70;;;7.60;;
61460;SDS011;47325;50.506;4.472;2023-03-01T05:33:10;9.40;;;7.20;;
61460;SDS011;47325;50.506;4.472;2023-03-01T05:38:55;10.40;;;7.70;;
61460;SDS011;47325;50.506;4.472;2023-03-01T05:44:39;10.70;;;7.40;;
61460;SDS011;47325;50.506;4.472;2023-03-01T05:50:23;10.50;;;7.40;;
61460;SDS011;47325;50.506;4.472;2023-03-01T05:56:07;10.80;;;7.50;;
61460;SDS011;47325;50.506;4.472;2023-03-01T06:01:51;11.20;;;7.60;;
61460;SDS011;47325;50.506;4.472;2023-03-01T06:07:35;9.40;;;7.40;;
61460;SDS011;47325;50.506;4.472;2023-03-01T06:13:19;10.80;;;7.80;;
61460;SDS011;47325;50.506;4.472;2023-03-01T06:19:03;10.50;;;7.90;;
61460;SDS011;47325;50.506;4.472;2023-03-01T06:24:47;12.90;;;8.00;;
61460;SDS011;47325;50.506;4.472;2023-03-01T06:30:31;11.90;;;7.60;;
61460;SDS011;47325;50.506;4.472;2023-03-01T06:36:16;11.30;;;7.50;;
61460;SDS011;47325;50.506;4.472;2023-03-01T06:42:00;10.60;;;7.80;;
61460;SDS011;47325;50.506;4.472;2023-03-01T06:47:43;10.30;;;7.30;;
61460;SDS011;47325;50.506;4.472;2023-03-01T06:53:27;11.20;;;7.70;;
61460;SDS011;47325;50.506;4.472;2023-03-01T06:59:13;11.40;;;7.80;;
61460;SDS011;47325;50.506;4.472;2023-03-01T07:04:56;11.40;;;7.80;;
61460;SDS011;47325;50.506;4.472;2023-03-01T07:10:40;10.00;;;7.90;;
61460;SDS011;47325;50.506;4.472;2023-03-01T07:16:24;12.10;;;7.80;;
61460;SDS011;47325;50.506;4.472;2023-03-01T07:22:10;11.70;;;7.80;;
61460;SDS011;47325;50.506;4.472;2023-03-01T07:27:54;12.50;;;8.40;;
61460;SDS011;47325;50.506;4.472;2023-03-01T07:33:38;11.50;;;8.00;;
61460;SDS011;47325;50.506;4.472;2023-03-01T07:39:22;10.80;;;7.90;;
61460;SDS011;47325;50.506;4.472;2023-03-01T07:45:06;11.10;;;7.90;;
61460;SDS011;47325;50.506;4.472;2023-03-01T07:50:50;11.10;;;8.10;;
61460;SDS011;47325;50.506;4.472;2023-03-01T07:56:34;10.80;;;8.20;;
61460;SDS011;47325;50.506;4.472;2023-03-01T08:02:18;11.40;;;8.10;;
61460;SDS011;47325;50.506;4.472;2023-03-01T08:08:02;12.30;;;8.20;;
61460;SDS011;47325;50.506;4.472;2023-03-01T08:13:48;13.10;;;8.50;;
61460;SDS011;47325;50.506;4.472;2023-03-01T08:19:36;12.40;;;8.30;;
61460;SDS011;47325;50.506;4.472;2023-03-01T08:25:20;13.40;;;8.90;;
61460;SDS011;47325;50.506;4.472;2023-03-01T08:31:04;12.00;;;8.70;;
61460;SDS011;47325;50.506;4.472;2023-03-01T08:36:53;11.80;;;8.30;;
61460;SDS011;47325;50.506;4.472;2023-03-01T08:42:37;14.50;;;8.90;;
61460;SDS011;47325;50.506;4.472;2023-03-01T08:48:20;13.10;;;8.80;;
61460;SDS011;47325;50.506;4.472;2023-03-01T08:54:05;12.30;;;8.30;;
61460;SDS011;47325;50.506;4.472;2023-03-01T08:59:49;12.60;;;8.40;;
61460;SDS011;47325;50.506;4.472;2023-03-01T09:05:34;11.80;;;8.90;;
61460;SDS011;47325;50.506;4.472;2023-03-01T09:11:19;13.40;;;9.00;;
61460;SDS011;47325;50.506;4.472;2023-03-01T09:17:04;12.70;;;9.00;;
61460;SDS011;47325;50.506;4.472;2023-03-01T09:22:53;12.20;;;9.00;;
61460;SDS011;47325;50.506;4.472;2023-03-01T09:28:37;13.80;;;8.80;;
61460;SDS011;47325;50.506;4.472;2023-03-01T09:34:22;13.80;;;9.40;;
61460;SDS011;47325;50.506;4.472;2023-03-01T09:40:08;13.40;;;8.70;;
61460;SDS011;47325;50.506;4.472;2023-03-01T09:45:55;13.20;;;9.20;;
61460;SDS011;47325;50.506;4.472;2023-03-01T09:51:46;12.50;;;8.80;;
61460;SDS011;47325;50.506;4.472;2023-03-01T09:57:36;13.20;;;8.50;;
61460;SDS011;47325;50.506;4.472;2023-03-01T10:03:21;12.30;;;8.10;;
61460;SDS011;47325;50.506;4.472;2023-03-01T10:09:10;11.20;;;8.40;;
61460;SDS011;47325;50.506;4.472;2023-03-01T10:14:56;12.40;;;8.90;;
61460;SDS011;47325;50.506;4.472;2023-03-01T10:20:43;11.70;;;8.50;;
61460;SDS011;47325;50.506;4.472;2023-03-01T10:26:36;13.30;;;8.60;;
61460;SDS011;47325;50.506;4.472;2023-03-01T10:32:21;12.10;;;8.60;;
61460;SDS011;47325;50.506;4.472;2023-03-01T10:38:08;11.80;;;8.50;;
61460;SDS011;47325;50.506;4.472;2023-03-01T10:43:53;12.30;;;8.20;;
61460;SDS011;47325;50.506;4.472;2023-03-01T10:49:37;12.30;;;8.20;;
61460;SDS011;47325;50.506;4.472;2023-03-01T10:55:26;12.30;;;8.40;;
61460;SDS011;47325;50.506;4.472;2023-03-01T11:07:07;12.80;;;8.20;;
61460;SDS011;47325;50.506;4.472;2023-03-01T11:12:50;11.40;;;7.70;;
61460;SDS011;47325;50.506;4.472;2023-03-01T11:18:34;12.10;;;7.80;;
61460;SDS011;47325;50.506;4.472;2023-03-01T11:24:31;10.90;;;7.90;;
61460;SDS011;47325;50.506;4.472;2023-03-01T11:30:18;11.80;;;8.10;;
61460;SDS011;47325;50.506;4.472;2023-03-01T11:36:05;9.60;;;7.20;;
61460;SDS011;47325;50.506;4.472;2023-03-01T11:41:52;10.90;;;7.90;;
61460;SDS011;47325;50.506;4.472;2023-03-01T12:05:56;10.40;;;7.50;;
61460;SDS011;47325;50.506;4.472;2023-03-01T12:11:47;11.70;;;7.50;;
61460;SDS011;47325;50.506;4.472;2023-03-01T12:17:40;11.50;;;7.40;;
61460;SDS011;47325;50.506;4.472;2023-03-01T12:29:38;9.60;;;7.30;;
61460;SDS011;47325;50.506;4.472;2023-03-01T12:41:40;10.60;;;7.30;;
61460;SDS011;47325;50.506;4.472;2023-03-01T12:47:30;10.70;;;7.00;;
61460;SDS011;47325;50.506;4.472;2023-03-01T12:53:21;10.10;;;6.70;;
61460;SDS011;47325;50.506;4.472;2023-03-01T12:59:07;10.50;;;7.00;;
61460;SDS011;47325;50.506;4.472;2023-03-01T13:04:58;10.30;;;6.90;;
61460;SDS011;47325;50.506;4.472;2023-03-01T13:10:46;10.40;;;6.60;;
61460;SDS011;47325;50.506;4.472;2023-03-01T13:16:42;8.50;;;6.40;;
61460;SDS011;47325;50.506;4.472;2023-03-01T13:22:31;7.70;;;6.20;;
61460;SDS011;47325;50.506;4.472;2023-03-01T13:28:49;9.00;;;6.20;;
61460;SDS011;47325;50.506;4.472;2023-03-01T13:34:43;7.30;;;5.30;;
61460;SDS011;47325;50.506;4.472;2023-03-01T13:46:22;7.30;;;5.30;;
61460;SDS011;47325;50.506;4.472;2023-03-01T13:52:13;8.10;;;5.30;;
61460;SDS011;47325;50.506;4.472;2023-03-01T13:58:03;6.70;;;5.20;;
61460;SDS011;47325;50.506;4.472;2023-03-01T14:03:49;8.10;;;5.20;;
61460;SDS011;47325;50.506;4.472;2023-03-01T14:09:33;8.30;;;5.20;;
61460;SDS011;47325;50.506;4.472;2023-03-01T14:15:22;7.30;;;5.00;;
61460;SDS011;47325;50.506;4.472;2023-03-01T14:21:12;7.30;;;4.70;;
61460;SDS011;47325;50.506;4.472;2023-03-01T14:26:57;8.30;;;4.70;;
61460;SDS011;47325;50.506;4.472;2023-03-01T14:32:41;8.40;;;5.60;;
61460;SDS011;47325;50.506;4.472;2023-03-01T14:38:28;7.90;;;5.50;;
61460;SDS011;47325;50.506;4.472;2023-03-01T14:44:15;7.50;;;5.50;;
61460;SDS011;47325;50.506;4.472;2023-03-01T14:50:01;7.30;;;5.40;;
61460;SDS011;47325;50.506;4.472;2023-03-01T14:55:46;6.70;;;5.10;;
61460;SDS011;47325;50.506;4.472;2023-03-01T15:01:31;8.70;;;5.10;;
61460;SDS011;47325;50.506;4.472;2023-03-01T15:07:15;6.90;;;4.50;;
61460;SDS011;47325;50.506;4.472;2023-03-01T15:13:09;7.40;;;5.10;;
61460;SDS011;47325;50.506;4.472;2023-03-01T15:18:49;7.00;;;4.90;;
61460;SDS011;47325;50.506;4.472;2023-03-01T15:24:34;7.40;;;4.70;;
61460;SDS011;47325;50.506;4.472;2023-03-01T15:30:19;6.10;;;4.30;;
61460;SDS011;47325;50.506;4.472;2023-03-01T15:36:03;7.10;;;4.50;;
61460;SDS011;47325;50.506;4.472;2023-03-01T15:41:52;6.90;;;4.20;;
61460;SDS011;47325;50.506;4.472;2023-03-01T15:47:36;7.50;;;4.40;;
61460;SDS011;47325;50.506;4.472;2023-03-01T15:53:22;6.00;;;4.10;;
61460;SDS011;47325;50.506;4.472;2023-03-01T15:59:08;6.50;;;4.30;;
61460;SDS011;47325;50.506;4.472;2023-03-01T16:04:53;7.30;;;4.70;;
61460;SDS011;47325;50.506;4.472;2023-03-01T16:10:38;7.10;;;4.20;;
61460;SDS011;47325;50.506;4.472;2023-03-01T16:16:23;5.20;;;4.10;;
61460;SDS011;47325;50.506;4.472;2023-03-01T16:22:08;6.60;;;4.20;;
61460;SDS011;47325;50.506;4.472;2023-03-01T16:27:52;6.00;;;4.10;;
61460;SDS011;47325;50.506;4.472;2023-03-01T16:33:35;6.10;;;4.30;;
61460;SDS011;47325;50.506;4.472;2023-03-01T16:39:19;6.80;;;3.90;;
61460;SDS011;47325;50.506;4.472;2023-03-01T16:45:03;6.70;;;4.40;;
61460;SDS011;47325;50.506;4.472;2023-03-01T16:51:05;7.10;;;4.40;;
61460;SDS011;47325;50.506;4.472;2023-03-01T16:56:49;6.90;;;4.70;;
61460;SDS011;47325;50.506;4.472;2023-03-01T17:02:33;6.60;;;4.70;;
61460;SDS011;47325;50.506;4.472;2023-03-01T17:08:17;8.20;;;5.00;;
61460;SDS011;47325;50.506;4.472;2023-03-01T17:14:01;7.90;;;5.10;;
61460;SDS011;47325;50.506;4.472;2023-03-01T17:19:45;8.30;;;4.90;;
61460;SDS011;47325;50.506;4.472;2023-03-01T17:25:28;7.20;;;5.00;;
61460;SDS011;47325;50.506;4.472;2023-03-01T17:31:12;7.30;;;5.20;;
61460;SDS011;47325;50.506;4.472;2023-03-01T17:36:56;36.40;;;12.50;;
61460;SDS011;47325;50.506;4.472;2023-03-01T17:42:40;26.00;;;11.90;;
61460;SDS011;47325;50.506;4.472;2023-03-01T17:48:24;30.50;;;11.90;;
61460;SDS011;47325;50.506;4.472;2023-03-01T17:54:07;30.10;;;11.60;;
61460;SDS011;47325;50.506;4.472;2023-03-01T17:59:51;29.10;;;11.80;;
61460;SDS011;47325;50.506;4.472;2023-03-01T18:05:35;25.90;;;11.70;;
61460;SDS011;47325;50.506;4.472;2023-03-01T18:11:20;26.30;;;12.30;;
61460;SDS011;47325;50.506;4.472;2023-03-01T18:17:04;23.50;;;10.30;;
61460;SDS011;47325;50.506;4.472;2023-03-01T18:22:49;18.10;;;9.90;;
61460;SDS011;47325;50.506;4.472;2023-03-01T18:28:33;19.60;;;9.50;;
61460;SDS011;47325;50.506;4.472;2023-03-01T18:34:17;18.50;;;9.30;;
61460;SDS011;47325;50.506;4.472;2023-03-01T18:40:00;21.40;;;9.40;;
61460;SDS011;47325;50.506;4.472;2023-03-01T18:45:44;19.00;;;9.30;;
61460;SDS011;47325;50.506;4.472;2023-03-01T18:51:28;15.50;;;8.60;;
61460;SDS011;47325;50.506;4.472;2023-03-01T18:57:14;18.20;;;8.80;;
61460;SDS011;47325;50.506;4.472;2023-03-01T19:02:58;18.00;;;8.50;;
61460;SDS011;47325;50.506;4.472;2023-03-01T19:08:42;16.10;;;8.10;;
61460;SDS011;47325;50.506;4.472;2023-03-01T19:14:25;15.90;;;8.10;;
61460;SDS011;47325;50.506;4.472;2023-03-01T19:20:10;13.40;;;7.20;;
61460;SDS011;47325;50.506;4.472;2023-03-01T19:25:54;15.00;;;7.30;;
61460;SDS011;47325;50.506;4.472;2023-03-01T19:31:40;14.30;;;7.30;;
61460;SDS011;47325;50.506;4.472;2023-03-01T19:37:24;13.60;;;7.50;;
61460;SDS011;47325;50.506;4.472;2023-03-01T19:43:08;13.70;;;6.50;;
61460;SDS011;47325;50.506;4.472;2023-03-01T19:48:52;10.90;;;5.70;;
61460;SDS011;47325;50.506;4.472;2023-03-01T19:54:35;13.20;;;7.10;;
61460;SDS011;47325;50.506;4.472;2023-03-01T20:00:20;10.60;;;6.50;;
61460;SDS011;47325;50.506;4.472;2023-03-01T20:06:06;9.20;;;6.00;;
61460;SDS011;47325;50.506;4.472;2023-03-01T20:11:50;9.80;;;6.30;;
61460;SDS011;47325;50.506;4.472;2023-03-01T20:17:34;13.70;;;6.20;;
61460;SDS011;47325;50.506;4.472;2023-03-01T20:23:19;10.50;;;6.40;;
61460;SDS011;47325;50.506;4.472;2023-03-01T20:29:03;11.70;;;6.00;;
61460;SDS011;47325;50.506;4.472;2023-03-01T20:34:49;11.30;;;6.40;;
61460;SDS011;47325;50.506;4.472;2023-03-01T20:40:34;10.40;;;5.90;;
61460;SDS011;47325;50.506;4.472;2023-03-01T20:46:18;9.30;;;6.10;;
61460;SDS011;47325;50.506;4.472;2023-03-01T20:52:02;10.40;;;6.10;;
61460;SDS011;47325;50.506;4.472;2023-03-01T20:57:46;10.50;;;5.80;;
61460;SDS011;47325;50.506;4.472;2023-03-01T21:03:30;11.20;;;6.30;;
61460;SDS011;47325;50.506;4.472;2023-03-01T21:09:15;9.00;;;5.90;;
61460;SDS011;47325;50.506;4.472;2023-03-01T21:14:59;11.70;;;6.50;;
61460;SDS011;47325;50.506;4.472;2023-03-01T21:20:43;11.00;;;6.00;;
61460;SDS011;47325;50.506;4.472;2023-03-01T21:26:27;9.40;;;5.90;;
61460;SDS011;47325;50.506;4.472;2023-03-01T21:32:12;10.30;;;5.90;;
61460;SDS011;47325;50.506;4.472;2023-03-01T21:37:56;9.50;;;5.80;;
61460;SDS011;47325;50.506;4.472;2023-03-01T21:43:41;10.50;;;5.90;;
61460;SDS011;47325;50.506;4.472;2023-03-01T21:49:26;9.10;;;6.30;;
61460;SDS011;47325;50.506;4.472;2023-03-01T21:55:10;10.60;;;6.30;;
61460;SDS011;47325;50.506;4.472;2023-03-01T22:00:54;10.90;;;6.20;;
61460;SDS011;47325;50.506;4.472;2023-03-01T22:06:40;10.50;;;6.10;;
61460;SDS011;47325;50.506;4.472;2023-03-01T22:12:25;10.40;;;6.20;;
61460;SDS011;47325;50.506;4.472;2023-03-01T22:18:09;12.50;;;6.50;;
61460;SDS011;47325;50.506;4.472;2023-03-01T22:23:53;9.80;;;6.30;;
61460;SDS011;47325;50.506;4.472;2023-03-01T22:29:37;10.70;;;6.20;;
61460;SDS011;47325;50.506;4.472;2023-03-01T22:35:21;10.30;;;6.70;;
61460;SDS011;47325;50.506;4.472;2023-03-01T22:41:05;10.10;;;6.10;;
61460;SDS011;47325;50.506;4.472;2023-03-01T22:46:49;11.10;;;6.70;;
61460;SDS011;47325;50.506;4.472;2023-03-01T22:52:33;10.20;;;6.30;;
61460;SDS011;47325;50.506;4.472;2023-03-01T22:58:17;9.50;;;6.40;;
61460;SDS011;47325;50.506;4.472;2023-03-01T23:04:00;12.90;;;7.00;;
61460;SDS011;47325;50.506;4.472;2023-03-01T23:09:44;10.00;;;6.40;;
61460;SDS011;47325;50.506;4.472;2023-03-01T23:15:31;11.20;;;6.80;;
61460;SDS011;47325;50.506;4.472;2023-03-01T23:21:15;11.70;;;6.50;;
61460;SDS011;47325;50.506;4.472;2023-03-01T23:27:00;11.80;;;6.90;;
61460;SDS011;47325;50.506;4.472;2023-03-01T23:32:44;11.10;;;6.80;;
61460;SDS011;47325;50.506;4.472;2023-03-01T23:38:28;12.60;;;7.00;;
61460;SDS011;47325;50.506;4.472;2023-03-01T23:44:14;11.50;;;6.60;;
61460;SDS011;47325;50.506;4.472;2023-03-01T23:49:58;10.90;;;6.80;;
61460;SDS011;47325;50.506;4.472;2023-03-01T23:55:43;11.20;;;6.40;;
